This is the latest recevied weather packets stored in our database for station/object KE7TOP-15. If no packets are shown the sender has not sent any weather packets the latest 10 day(s).
| Time | Temp. | Humidity | Pressure | Rain* | Wind** | Luminosity | Snow |
|---|---|---|---|---|---|---|---|
| 1778009418 | 15.56° C | 56% | 1014.4 hPa | 0 mm | - | 748 W/m² | - |
| 1778003420 | 12.78° C | 66% | 1014.1 hPa | 0 mm | - | 579 W/m² | - |
| 1778002838 | 12.22° C | 67% | 1014.1 hPa | 0 mm | - | 690 W/m² | - |
| 1777992622 | 7.22° C | 87% | 1013.3 hPa | 0 mm | - | 48 W/m² | - |
| 1777990818 | 6.67° C | 90% | 1012.9 hPa | 0 mm | - | 34 W/m² | - |
| 1777982437 | 6.67° C | 87% | 1011.9 hPa | 0 mm | - | 0 W/m² | - |
| 1777978521 | 6.67° C | 85% | 1012 hPa | 0 mm | - | 0 W/m² | - |
| 1777976715 | 6.67° C | 84% | 1012 hPa | 0 mm | - | 0 W/m² | - |
| 1777974319 | 6.11° C | 87% | 1012 hPa | 0 mm | - | 0 W/m² | - |
| 1777973116 | 6.67° C | 83% | 1011.9 hPa | 0 mm | - | 0 W/m² | - |
| 1777968324 | 6.11° C | 85% | 1012.8 hPa | 0 mm | - | 0 W/m² | - |
| 1777966518 | 5.56° C | 91% | 1013.3 hPa | 0 mm | - | 0 W/m² | - |
| 1777964120 | 6.67° C | 82% | 1012.2 hPa | 0 mm | - | 0 W/m² | - |
| 1777962316 | 7.22° C | 81% | 1011.4 hPa | 0 mm | - | 0 W/m² | - |
| 1777960521 | 6.67° C | 81% | 1012.1 hPa | 0.76 mm | - | 0 W/m² | - |
| 1777958717 | 7.22° C | 82% | 1012.8 hPa | 1.02 mm | - | 0 W/m² | - |
| 1777950316 | 6.11° C | 88% | 1012 hPa | 1.27 mm | - | 0 W/m² | - |
| 1777940738 | 11.67° C | 71% | 1010.8 hPa | 0 mm | - | 81 W/m² | - |
| 1777936516 | 10° C | 81% | 1010.9 hPa | 1.52 mm | - | 432 W/m² | - |
| 1777932918 | 10.56° C | 77% | 1011 hPa | 1.27 mm | - | 22 W/m² | - |
| 1777931125 | 13.89° C | 58% | 1010.6 hPa | 0 mm | - | 72 W/m² | - |
| 1777929320 | 13.89° C | 56% | 1011.4 hPa | 0 mm | - | 173 W/m² | - |
| 1777924516 | 15.56° C | 50% | 1012 hPa | 0 mm | - | 626 W/m² | - |
| 1777918221 | 13.33° C | 56% | 1012.9 hPa | 0 mm | - | 674 W/m² | - |
| 1777914020 | 10° C | 73% | 1012.9 hPa | 0 mm | - | 129 W/m² | - |
* Rain latest hour (hover to see other rain measurements)
** Current wind speed in m/s (hover to see current wind gust speed)